KAL9983 RKSI-UGTB
Flight info
| Callsign | KAL9983 |
|---|---|
| Flight time | N/A |
| Altitude | 36000 |
| Route | NOPIK Y697 AGAVO/K0770S0660 A591 IKEKA W4 FZ/K0878S1040 W4 TEKAM/K0885S1100 W4 HCH W200 DOVIV W55 PAMRU W34 VYK B215 LEBOM W104 VEXEB W47 IDSOT W48 DKO W66 NUKTI B215 HAM/K0880S1160 B215 FKG A368 SARIN/K0872F380 N161 ABDUN/K0885F400 N161 GASBI/N0481F400 N161 LEYLA N644 ADEKI DCT LAMUS |
| Aircraft | B77W/H-SDE1E2E3FGHIJ2J3J4J5M1RWXY/LB1D1 |
Departure
| Time | 2026-05-05 02:50 |
|---|---|
| Airport | Incheon International Airport (RKSI) |
Arrival
| Time | N/A |
|---|---|
| Airport | Tbilisi International Airport (UGTB) |
| Time | Latitude | Longitude | Altitude | Speed | Heading |
|---|---|---|---|---|---|
| 2026-05-05 02:31 | 37.46778 | 126.42831 | 38 ft | 0 kts | 52° |
| 2026-05-05 02:40 | 37.46775 | 126.42827 | 38 ft | 2 kts | 52° |
| 2026-05-05 02:40 | 37.46763 | 126.42808 | 37 ft | 3 kts | 52° |
| 2026-05-05 02:40 | 37.46753 | 126.42790 | 36 ft | 2 kts | 52° |
| 2026-05-05 02:41 | 37.46741 | 126.42774 | 36 ft | 3 kts | 37° |
| 2026-05-05 02:41 | 37.46728 | 126.42763 | 36 ft | 3 kts | 11° |
| 2026-05-05 02:41 | 37.46715 | 126.42762 | 36 ft | 3 kts | 339° |
| 2026-05-05 02:41 | 37.46700 | 126.42772 | 35 ft | 3 kts | 320° |
| 2026-05-05 02:42 | 37.46686 | 126.42787 | 35 ft | 3 kts | 321° |
| 2026-05-05 02:43 | 37.46703 | 126.42771 | 36 ft | 11 kts | 324° |
| 2026-05-05 02:43 | 37.46775 | 126.42700 | 38 ft | 13 kts | 319° |
| 2026-05-05 02:43 | 37.46806 | 126.42612 | 38 ft | 11 kts | 256° |
| 2026-05-05 02:44 | 37.46765 | 126.42532 | 38 ft | 11 kts | 234° |
| 2026-05-05 02:44 | 37.46761 | 126.42449 | 38 ft | 16 kts | 303° |
| 2026-05-05 02:44 | 37.46896 | 126.42319 | 38 ft | 27 kts | 324° |
| 2026-05-05 02:44 | 37.47050 | 126.42182 | 38 ft | 27 kts | 324° |
| 2026-05-05 02:45 | 37.47204 | 126.42046 | 38 ft | 26 kts | 325° |
| 2026-05-05 02:45 | 37.47350 | 126.41915 | 38 ft | 24 kts | 324° |
| 2026-05-05 02:45 | 37.47403 | 126.41813 | 38 ft | 10 kts | 261° |
| 2026-05-05 02:45 | 37.47367 | 126.41742 | 38 ft | 10 kts | 233° |
| 2026-05-05 02:46 | 37.47346 | 126.41706 | 38 ft | 0 kts | 234° |
| 2026-05-05 02:48 | 37.47329 | 126.41677 | 38 ft | 9 kts | 234° |
| 2026-05-05 02:48 | 37.47294 | 126.41615 | 38 ft | 9 kts | 235° |
| 2026-05-05 02:48 | 37.47244 | 126.41599 | 38 ft | 7 kts | 155° |
| 2026-05-05 02:48 | 37.47233 | 126.41606 | 38 ft | 3 kts | 154° |
| 2026-05-05 02:49 | 37.47214 | 126.41620 | 38 ft | 3 kts | 148° |
| 2026-05-05 02:49 | 37.47206 | 126.41627 | 38 ft | 0 kts | 147° |
| 2026-05-05 02:49 | 37.47204 | 126.41628 | 38 ft | 0 kts | 147° |
| 2026-05-05 02:49 | 37.47201 | 126.41630 | 38 ft | 2 kts | 146° |
| 2026-05-05 02:50 | 37.47001 | 126.41807 | 38 ft | 78 kts | 144° |
| 2026-05-05 02:50 | 37.46329 | 126.42403 | 38 ft | 156 kts | 145° |
| 2026-05-05 02:50 | 37.45347 | 126.43269 | 632 ft | 172 kts | 147° |
| 2026-05-05 02:50 | 37.44342 | 126.44130 | 1651 ft | 175 kts | 149° |
| 2026-05-05 02:51 | 37.43273 | 126.44979 | 2128 ft | 194 kts | 154° |
| 2026-05-05 02:51 | 37.42029 | 126.45880 | 2311 ft | 223 kts | 153° |
| 2026-05-05 02:51 | 37.40623 | 126.46910 | 2697 ft | 241 kts | 153° |
| 2026-05-05 02:51 | 37.39134 | 126.48013 | 3426 ft | 248 kts | 153° |
| 2026-05-05 02:52 | 37.37578 | 126.48905 | 4074 ft | 252 kts | 166° |
| 2026-05-05 02:52 | 37.35869 | 126.49465 | 4826 ft | 257 kts | 169° |
| 2026-05-05 02:52 | 37.34117 | 126.50004 | 5593 ft | 262 kts | 168° |
| 2026-05-05 02:52 | 37.32332 | 126.50578 | 6299 ft | 269 kts | 168° |
| 2026-05-05 02:53 | 37.30504 | 126.51181 | 7006 ft | 273 kts | 168° |
| 2026-05-05 02:53 | 37.28644 | 126.51482 | 7667 ft | 271 kts | 189° |
| 2026-05-05 02:53 | 37.26883 | 126.50673 | 8248 ft | 273 kts | 215° |
| 2026-05-05 02:53 | 37.25438 | 126.49135 | 8914 ft | 275 kts | 223° |
| 2026-05-05 02:54 | 37.24031 | 126.47476 | 9614 ft | 278 kts | 223° |
| 2026-05-05 02:54 | 37.22617 | 126.45793 | 9996 ft | 281 kts | 223° |
| 2026-05-05 02:54 | 37.21186 | 126.44091 | 9981 ft | 285 kts | 223° |
| 2026-05-05 02:54 | 37.19748 | 126.42386 | 9983 ft | 284 kts | 223° |
| 2026-05-05 02:55 | 37.18309 | 126.40686 | 9981 ft | 283 kts | 223° |
| 2026-05-05 02:55 | 37.16875 | 126.38998 | 9980 ft | 282 kts | 223° |
| 2026-05-05 02:55 | 37.15441 | 126.37315 | 9997 ft | 285 kts | 223° |
| 2026-05-05 02:55 | 37.13943 | 126.35559 | 10189 ft | 307 kts | 223° |
| 2026-05-05 02:56 | 37.12320 | 126.33659 | 10349 ft | 330 kts | 224° |
| 2026-05-05 02:56 | 37.10897 | 126.31327 | 10466 ft | 351 kts | 245° |
| 2026-05-05 02:56 | 37.10325 | 126.28301 | 10878 ft | 364 kts | 266° |
| 2026-05-05 02:56 | 37.10309 | 126.25080 | 11396 ft | 375 kts | 269° |
| 2026-05-05 02:57 | 37.10324 | 126.21783 | 12121 ft | 382 kts | 269° |
| 2026-05-05 02:57 | 37.10322 | 126.18435 | 12965 ft | 387 kts | 268° |
| 2026-05-05 02:57 | 37.10301 | 126.15039 | 13774 ft | 393 kts | 268° |
| 2026-05-05 02:57 | 37.10274 | 126.11591 | 14495 ft | 397 kts | 270° |
| 2026-05-05 02:58 | 37.10654 | 126.08138 | 15054 ft | 407 kts | 289° |
| 2026-05-05 02:58 | 37.11783 | 126.04890 | 15712 ft | 409 kts | 294° |
| 2026-05-05 02:58 | 37.12981 | 126.01638 | 16446 ft | 414 kts | 294° |
| 2026-05-05 02:58 | 37.14167 | 125.98342 | 17295 ft | 416 kts | 294° |
| 2026-05-05 02:59 | 37.15342 | 125.95002 | 17997 ft | 423 kts | 293° |
| 2026-05-05 02:59 | 37.16515 | 125.91610 | 18760 ft | 425 kts | 293° |
| 2026-05-05 02:59 | 37.17686 | 125.88198 | 19537 ft | 426 kts | 293° |
| 2026-05-05 02:59 | 37.18859 | 125.84773 | 20194 ft | 430 kts | 293° |
| 2026-05-05 03:00 | 37.20045 | 125.81309 | 20836 ft | 434 kts | 293° |
| 2026-05-05 03:00 | 37.21241 | 125.77812 | 21546 ft | 437 kts | 294° |
| 2026-05-05 03:00 | 37.22439 | 125.74305 | 22242 ft | 439 kts | 294° |
| 2026-05-05 03:00 | 37.23646 | 125.70769 | 22919 ft | 442 kts | 294° |
| 2026-05-05 03:01 | 37.24857 | 125.67215 | 23563 ft | 445 kts | 294° |
| 2026-05-05 03:01 | 37.26079 | 125.63625 | 24098 ft | 449 kts | 294° |
| 2026-05-05 03:01 | 37.27309 | 125.60005 | 24630 ft | 451 kts | 294° |
| 2026-05-05 03:01 | 37.28542 | 125.56373 | 25147 ft | 454 kts | 293° |
| 2026-05-05 03:02 | 37.29782 | 125.52716 | 25657 ft | 457 kts | 293° |
| 2026-05-05 03:02 | 37.31031 | 125.49030 | 26135 ft | 460 kts | 293° |
| 2026-05-05 03:02 | 37.32286 | 125.45320 | 26639 ft | 463 kts | 293° |
| 2026-05-05 03:02 | 37.33546 | 125.41589 | 27110 ft | 465 kts | 293° |
| 2026-05-05 03:03 | 37.34798 | 125.37879 | 27556 ft | 468 kts | 293° |
| 2026-05-05 03:03 | 37.36072 | 125.34098 | 28012 ft | 471 kts | 293° |
| 2026-05-05 03:03 | 37.37350 | 125.30300 | 28439 ft | 474 kts | 293° |
| 2026-05-05 03:03 | 37.38636 | 125.26475 | 28869 ft | 476 kts | 293° |
| 2026-05-05 03:04 | 37.39691 | 125.22530 | 29103 ft | 480 kts | 281° |
| 2026-05-05 03:04 | 37.39874 | 125.18343 | 29405 ft | 481 kts | 268° |
| 2026-05-05 03:04 | 37.39703 | 125.14136 | 29813 ft | 482 kts | 268° |
| 2026-05-05 03:04 | 37.39541 | 125.09936 | 30293 ft | 481 kts | 268° |
| 2026-05-05 03:05 | 37.39415 | 125.05740 | 30746 ft | 479 kts | 269° |
| 2026-05-05 03:05 | 37.39321 | 125.01563 | 31237 ft | 476 kts | 269° |
| 2026-05-05 03:05 | 37.39246 | 124.97414 | 31711 ft | 474 kts | 269° |
| 2026-05-05 03:05 | 37.39177 | 124.93280 | 32183 ft | 472 kts | 269° |
| 2026-05-05 03:06 | 37.39106 | 124.89166 | 32648 ft | 469 kts | 269° |
| 2026-05-05 03:06 | 37.39030 | 124.85080 | 33087 ft | 468 kts | 269° |
| 2026-05-05 03:06 | 37.38950 | 124.80997 | 33491 ft | 466 kts | 269° |
| 2026-05-05 03:06 | 37.38867 | 124.76924 | 33876 ft | 465 kts | 268° |
| 2026-05-05 03:07 | 37.38782 | 124.72847 | 34022 ft | 469 kts | 268° |
| 2026-05-05 03:07 | 37.38608 | 124.64581 | 34090 ft | 474 kts | 268° |
| 2026-05-05 03:08 | 37.38429 | 124.56337 | 34106 ft | 473 kts | 268° |
| 2026-05-05 03:08 | 37.38236 | 124.48083 | 34095 ft | 471 kts | 266° |
| 2026-05-05 03:09 | 37.36814 | 124.40055 | 34100 ft | 471 kts | 249° |
| 2026-05-05 03:09 | 37.33702 | 124.32809 | 34191 ft | 474 kts | 237° |
| 2026-05-05 03:10 | 37.30104 | 124.25904 | 34190 ft | 470 kts | 238° |
| 2026-05-05 03:10 | 37.26597 | 124.19033 | 34197 ft | 470 kts | 238° |
| 2026-05-05 03:11 | 37.23072 | 124.12071 | 34202 ft | 474 kts | 238° |
| 2026-05-05 03:11 | 37.19434 | 124.05165 | 34192 ft | 471 kts | 237° |
| 2026-05-05 03:12 | 37.15815 | 123.98323 | 34186 ft | 473 kts | 238° |
| 2026-05-05 03:12 | 37.12249 | 123.91430 | 34181 ft | 470 kts | 238° |
| 2026-05-05 03:13 | 37.08689 | 123.84510 | 34186 ft | 472 kts | 238° |
| 2026-05-05 03:13 | 37.05135 | 123.77636 | 34193 ft | 471 kts | 238° |
| 2026-05-05 03:14 | 37.01558 | 123.70742 | 34175 ft | 471 kts | 238° |
| 2026-05-05 03:14 | 36.97996 | 123.63898 | 34185 ft | 469 kts | 238° |
| 2026-05-05 03:15 | 36.94422 | 123.57036 | 34179 ft | 470 kts | 238° |
| 2026-05-05 03:15 | 36.90864 | 123.50222 | 34180 ft | 469 kts | 238° |
| 2026-05-05 03:16 | 36.87285 | 123.43382 | 34173 ft | 469 kts | 238° |
| 2026-05-05 03:16 | 36.84432 | 123.36179 | 34170 ft | 465 kts | 260° |
| 2026-05-05 03:16 | 36.84166 | 123.32157 | 34188 ft | 468 kts | 272° |
| 2026-05-05 03:17 | 36.84651 | 123.28142 | 34171 ft | 468 kts | 285° |
| 2026-05-05 03:17 | 36.86601 | 123.20372 | 34176 ft | 470 kts | 287° |
| 2026-05-05 03:18 | 36.88570 | 123.12650 | 34163 ft | 469 kts | 287° |
| 2026-05-05 03:18 | 36.90484 | 123.04854 | 34169 ft | 471 kts | 286° |
| 2026-05-05 03:19 | 36.92986 | 122.94414 | 34162 ft | 467 kts | 286° |
| 2026-05-05 03:19 | 36.94826 | 122.86694 | 34155 ft | 467 kts | 286° |
| 2026-05-05 03:20 | 36.96688 | 122.78868 | 34162 ft | 472 kts | 286° |
| 2026-05-05 03:20 | 36.98545 | 122.71040 | 34150 ft | 466 kts | 286° |
| 2026-05-05 03:21 | 37.00372 | 122.63315 | 34145 ft | 461 kts | 286° |
| 2026-05-05 03:21 | 37.02177 | 122.55658 | 34143 ft | 455 kts | 286° |
| 2026-05-05 03:22 | 37.03951 | 122.48109 | 34160 ft | 455 kts | 286° |
| 2026-05-05 03:22 | 37.05728 | 122.40527 | 34145 ft | 450 kts | 286° |
| 2026-05-05 03:23 | 37.08209 | 122.33315 | 34160 ft | 459 kts | 304° |
| 2026-05-05 03:23 | 37.12620 | 122.27609 | 34148 ft | 458 kts | 323° |
| 2026-05-05 03:24 | 37.17429 | 122.22412 | 34136 ft | 455 kts | 307° |
| 2026-05-05 03:24 | 37.20394 | 122.15445 | 34131 ft | 454 kts | 288° |
| 2026-05-05 03:25 | 37.22299 | 122.07821 | 34134 ft | 460 kts | 287° |
| 2026-05-05 03:25 | 37.24195 | 122.00277 | 34124 ft | 455 kts | 288° |
| 2026-05-05 03:26 | 37.26147 | 121.92656 | 34120 ft | 460 kts | 288° |
| 2026-05-05 03:26 | 37.28110 | 121.85043 | 34107 ft | 457 kts | 288° |
| 2026-05-05 03:27 | 37.30073 | 121.77423 | 34115 ft | 460 kts | 288° |
| 2026-05-05 03:27 | 37.32038 | 121.69763 | 34101 ft | 461 kts | 288° |
| 2026-05-05 03:28 | 37.33992 | 121.62114 | 34103 ft | 462 kts | 289° |
| 2026-05-05 03:28 | 37.35946 | 121.54446 | 34091 ft | 460 kts | 289° |
| 2026-05-05 03:29 | 37.37900 | 121.46754 | 34086 ft | 462 kts | 289° |
| 2026-05-05 03:29 | 37.39851 | 121.39051 | 34088 ft | 463 kts | 289° |
| 2026-05-05 03:30 | 37.41797 | 121.31337 | 34075 ft | 462 kts | 289° |
| 2026-05-05 03:30 | 37.43750 | 121.23582 | 34073 ft | 468 kts | 289° |
| 2026-05-05 03:31 | 37.45801 | 121.15770 | 34067 ft | 471 kts | 293° |
| 2026-05-05 03:31 | 37.48245 | 121.08086 | 34070 ft | 475 kts | 294° |
| 2026-05-05 03:32 | 37.50736 | 121.00381 | 34055 ft | 476 kts | 294° |
| 2026-05-05 03:32 | 37.53202 | 120.92627 | 34049 ft | 475 kts | 294° |
| 2026-05-05 03:33 | 37.55623 | 120.84953 | 34035 ft | 468 kts | 294° |
| 2026-05-05 03:33 | 37.58008 | 120.77388 | 34043 ft | 467 kts | 294° |
| 2026-05-05 03:34 | 37.60432 | 120.69864 | 34035 ft | 468 kts | 295° |
| 2026-05-05 03:34 | 37.62947 | 120.62290 | 34028 ft | 469 kts | 295° |
| 2026-05-05 03:35 | 37.65472 | 120.54696 | 34026 ft | 469 kts | 297° |
| 2026-05-05 03:35 | 37.68597 | 120.47516 | 34024 ft | 467 kts | 303° |
| 2026-05-05 03:36 | 37.71890 | 120.40432 | 34018 ft | 468 kts | 303° |
| 2026-05-05 03:36 | 37.75161 | 120.33325 | 34011 ft | 468 kts | 302° |
| 2026-05-05 03:37 | 37.78404 | 120.26196 | 34006 ft | 468 kts | 302° |
| 2026-05-05 03:37 | 37.81638 | 120.19055 | 34005 ft | 468 kts | 302° |
| 2026-05-05 03:38 | 37.84866 | 120.11912 | 34004 ft | 468 kts | 302° |
| 2026-05-05 03:38 | 37.88094 | 120.04760 | 33999 ft | 468 kts | 302° |
| 2026-05-05 03:39 | 37.91313 | 119.97608 | 34000 ft | 468 kts | 302° |
| 2026-05-05 03:39 | 37.94529 | 119.90449 | 33996 ft | 467 kts | 302° |
| 2026-05-05 03:40 | 37.97736 | 119.83294 | 33994 ft | 467 kts | 302° |
| 2026-05-05 03:40 | 38.00941 | 119.76127 | 33987 ft | 467 kts | 302° |
| 2026-05-05 03:41 | 38.04138 | 119.68961 | 33989 ft | 467 kts | 302° |
| 2026-05-05 03:41 | 38.07306 | 119.61845 | 33985 ft | 467 kts | 302° |
| 2026-05-05 03:42 | 38.10492 | 119.54668 | 33979 ft | 466 kts | 301° |
| 2026-05-05 03:42 | 38.13191 | 119.47162 | 33984 ft | 468 kts | 295° |
| 2026-05-05 03:43 | 38.15645 | 119.39495 | 33975 ft | 468 kts | 294° |
| 2026-05-05 03:43 | 38.18105 | 119.31840 | 33969 ft | 468 kts | 294° |
| 2026-05-05 03:44 | 38.20581 | 119.24194 | 33966 ft | 468 kts | 294° |
| 2026-05-05 03:44 | 38.23057 | 119.16551 | 33958 ft | 467 kts | 294° |
| 2026-05-05 03:45 | 38.25529 | 119.08897 | 33956 ft | 467 kts | 294° |
| 2026-05-05 03:45 | 38.27990 | 119.01255 | 33951 ft | 467 kts | 294° |
| 2026-05-05 03:46 | 38.30442 | 118.93617 | 33952 ft | 466 kts | 294° |
| 2026-05-05 03:46 | 38.32887 | 118.85981 | 33946 ft | 465 kts | 294° |
| 2026-05-05 03:47 | 38.35324 | 118.78354 | 33944 ft | 465 kts | 294° |
| 2026-05-05 03:47 | 38.37750 | 118.70734 | 33935 ft | 464 kts | 294° |
| 2026-05-05 03:48 | 38.40168 | 118.63110 | 33936 ft | 463 kts | 293° |
| 2026-05-05 03:48 | 38.42575 | 118.55499 | 33931 ft | 463 kts | 293° |
| 2026-05-05 03:49 | 38.44976 | 118.47891 | 33928 ft | 462 kts | 293° |
| 2026-05-05 03:49 | 38.47370 | 118.40283 | 33929 ft | 462 kts | 293° |
| 2026-05-05 03:50 | 38.49764 | 118.32685 | 33927 ft | 461 kts | 293° |
| 2026-05-05 03:50 | 38.52139 | 118.25146 | 33920 ft | 460 kts | 293° |
| 2026-05-05 03:51 | 38.54520 | 118.17560 | 33921 ft | 460 kts | 293° |
| 2026-05-05 03:51 | 38.56893 | 118.09977 | 33918 ft | 459 kts | 293° |
| 2026-05-05 03:52 | 38.59836 | 118.02773 | 33923 ft | 457 kts | 304° |
| 2026-05-05 03:52 | 38.63807 | 117.96458 | 33912 ft | 456 kts | 314° |
| 2026-05-05 03:53 | 38.68228 | 117.90639 | 33904 ft | 456 kts | 314° |
| 2026-05-05 03:53 | 38.72656 | 117.84818 | 33906 ft | 456 kts | 314° |
| 2026-05-05 03:54 | 38.77061 | 117.78956 | 33917 ft | 457 kts | 314° |
| 2026-05-05 03:54 | 38.81454 | 117.73072 | 33915 ft | 457 kts | 314° |
| 2026-05-05 03:55 | 38.85839 | 117.67183 | 33908 ft | 456 kts | 313° |
| 2026-05-05 03:55 | 38.90220 | 117.61292 | 33899 ft | 456 kts | 313° |
| 2026-05-05 03:56 | 38.94600 | 117.55392 | 33901 ft | 456 kts | 313° |
| 2026-05-05 03:56 | 38.98971 | 117.49491 | 33888 ft | 456 kts | 313° |
| 2026-05-05 03:57 | 39.03342 | 117.43582 | 33891 ft | 456 kts | 313° |
| 2026-05-05 03:57 | 39.07076 | 117.37084 | 33915 ft | 453 kts | 296° |
| 2026-05-05 03:58 | 39.09090 | 117.29413 | 33899 ft | 455 kts | 281° |
| 2026-05-05 03:58 | 39.10068 | 117.21415 | 33893 ft | 456 kts | 280° |
| 2026-05-05 03:59 | 39.11069 | 117.13296 | 33898 ft | 457 kts | 280° |
| 2026-05-05 03:59 | 39.12109 | 117.05288 | 33888 ft | 457 kts | 281° |
| 2026-05-05 04:00 | 39.13169 | 116.97220 | 33882 ft | 457 kts | 281° |
| 2026-05-05 04:00 | 39.14433 | 116.89209 | 33875 ft | 456 kts | 283° |
| 2026-05-05 04:01 | 39.15739 | 116.81223 | 33874 ft | 455 kts | 283° |
| 2026-05-05 04:01 | 39.17001 | 116.73240 | 33876 ft | 454 kts | 283° |
| 2026-05-05 04:02 | 39.18246 | 116.65269 | 33868 ft | 453 kts | 282° |
| 2026-05-05 04:02 | 39.18790 | 116.57200 | 33885 ft | 455 kts | 269° |
| 2026-05-05 04:03 | 39.17765 | 116.49143 | 33877 ft | 458 kts | 256° |
| 2026-05-05 04:03 | 39.15914 | 116.41275 | 33874 ft | 459 kts | 255° |
| 2026-05-05 04:04 | 39.14036 | 116.33417 | 33865 ft | 459 kts | 256° |
| 2026-05-05 04:04 | 39.12192 | 116.25554 | 33878 ft | 459 kts | 256° |
| 2026-05-05 04:05 | 39.10359 | 116.17671 | 33868 ft | 460 kts | 256° |
| 2026-05-05 04:05 | 39.08522 | 116.09783 | 33871 ft | 460 kts | 256° |
| 2026-05-05 04:06 | 39.06676 | 116.01889 | 33875 ft | 461 kts | 256° |
| 2026-05-05 04:06 | 39.05137 | 115.95329 | 33877 ft | 461 kts | 256° |
| 2026-05-05 04:07 | 39.02964 | 115.86105 | 33876 ft | 461 kts | 256° |
| 2026-05-05 04:07 | 39.01099 | 115.78215 | 33878 ft | 461 kts | 256° |
| 2026-05-05 04:08 | 38.99547 | 115.71669 | 33874 ft | 461 kts | 256° |
| 2026-05-05 04:08 | 38.97671 | 115.63779 | 33873 ft | 461 kts | 256° |
| 2026-05-05 04:09 | 38.95793 | 115.55903 | 33871 ft | 461 kts | 256° |
| 2026-05-05 04:09 | 38.93732 | 115.48092 | 33878 ft | 463 kts | 249° |
| 2026-05-05 04:10 | 38.91065 | 115.40559 | 33876 ft | 464 kts | 249° |
| 2026-05-05 04:10 | 38.88376 | 115.33035 | 33866 ft | 464 kts | 249° |
| 2026-05-05 04:11 | 38.85709 | 115.25498 | 33872 ft | 464 kts | 249° |
| 2026-05-05 04:11 | 38.83065 | 115.18005 | 33872 ft | 464 kts | 249° |
| 2026-05-05 04:12 | 38.80401 | 115.10476 | 33867 ft | 464 kts | 249° |
| 2026-05-05 04:12 | 38.77730 | 115.02946 | 33873 ft | 464 kts | 249° |
| 2026-05-05 04:13 | 38.75056 | 114.95431 | 33865 ft | 464 kts | 249° |
| 2026-05-05 04:13 | 38.72381 | 114.87917 | 33867 ft | 464 kts | 249° |
| 2026-05-05 04:14 | 38.69704 | 114.80402 | 33869 ft | 464 kts | 249° |
| 2026-05-05 04:14 | 38.67024 | 114.72901 | 33866 ft | 464 kts | 249° |
| 2026-05-05 04:15 | 38.64339 | 114.65403 | 33870 ft | 464 kts | 249° |
| 2026-05-05 04:15 | 38.61649 | 114.57909 | 33870 ft | 463 kts | 249° |
| 2026-05-05 04:16 | 38.58978 | 114.50452 | 33863 ft | 464 kts | 249° |
| 2026-05-05 04:16 | 38.56266 | 114.42963 | 33867 ft | 464 kts | 249° |
| 2026-05-05 04:17 | 38.53546 | 114.35489 | 33865 ft | 464 kts | 249° |
| 2026-05-05 04:17 | 38.50840 | 114.28064 | 33865 ft | 464 kts | 249° |
| 2026-05-05 04:18 | 38.48108 | 114.20577 | 33870 ft | 464 kts | 249° |
| 2026-05-05 04:18 | 38.45375 | 114.13104 | 33873 ft | 465 kts | 249° |
| 2026-05-05 04:19 | 38.42632 | 114.05621 | 33869 ft | 466 kts | 249° |
| 2026-05-05 04:19 | 38.39884 | 113.98139 | 33865 ft | 466 kts | 249° |
| 2026-05-05 04:20 | 38.37139 | 113.90662 | 33879 ft | 466 kts | 249° |
| 2026-05-05 04:20 | 38.34387 | 113.83181 | 33870 ft | 467 kts | 249° |
| 2026-05-05 04:21 | 38.31596 | 113.75711 | 33868 ft | 468 kts | 248° |
| 2026-05-05 04:21 | 38.28789 | 113.68300 | 33879 ft | 468 kts | 248° |
| 2026-05-05 04:22 | 38.25960 | 113.60837 | 33889 ft | 469 kts | 248° |
| 2026-05-05 04:22 | 38.23124 | 113.53351 | 33890 ft | 470 kts | 248° |
| 2026-05-05 04:23 | 38.20281 | 113.45866 | 33886 ft | 470 kts | 248° |
| 2026-05-05 04:23 | 38.17434 | 113.38388 | 33902 ft | 470 kts | 248° |
| 2026-05-05 04:24 | 38.14603 | 113.30902 | 33914 ft | 470 kts | 249° |
| 2026-05-05 04:25 | 38.10414 | 113.19633 | 33918 ft | 470 kts | 249° |
| 2026-05-05 04:25 | 38.07609 | 113.12121 | 33921 ft | 471 kts | 249° |
| 2026-05-05 04:26 | 38.04791 | 113.04605 | 33931 ft | 472 kts | 249° |
| 2026-05-05 04:26 | 38.01957 | 112.97068 | 33986 ft | 475 kts | 249° |
| 2026-05-05 04:26 | 38.00535 | 112.93295 | 34286 ft | 474 kts | 249° |
| 2026-05-05 04:27 | 37.99115 | 112.89533 | 34680 ft | 471 kts | 249° |
| 2026-05-05 04:27 | 37.97702 | 112.85795 | 35052 ft | 469 kts | 249° |
| 2026-05-05 04:27 | 37.96312 | 112.82117 | 35347 ft | 468 kts | 249° |
| 2026-05-05 04:27 | 37.94905 | 112.78399 | 35623 ft | 468 kts | 249° |
| 2026-05-05 04:28 | 37.93475 | 112.74624 | 35757 ft | 470 kts | 249° |
| 2026-05-05 04:28 | 37.90653 | 112.67189 | 35819 ft | 471 kts | 249° |
| 2026-05-05 04:29 | 37.87800 | 112.59692 | 35828 ft | 469 kts | 249° |
| 2026-05-05 04:29 | 37.84794 | 112.52358 | 35829 ft | 470 kts | 245° |
| 2026-05-05 04:30 | 37.81654 | 112.45170 | 35827 ft | 469 kts | 246° |
| 2026-05-05 04:30 | 37.78784 | 112.37817 | 35835 ft | 460 kts | 257° |
| 2026-05-05 04:31 | 37.77863 | 112.29928 | 35830 ft | 451 kts | 275° |
| 2026-05-05 04:31 | 37.78580 | 112.22106 | 35827 ft | 448 kts | 281° |
| 2026-05-05 04:32 | 37.79413 | 112.14321 | 35820 ft | 450 kts | 281° |
| 2026-05-05 04:32 | 37.80188 | 112.06580 | 35816 ft | 452 kts | 281° |
| 2026-05-05 04:33 | 37.80941 | 111.98737 | 35818 ft | 453 kts | 280° |
| 2026-05-05 04:33 | 37.81690 | 111.90827 | 35817 ft | 453 kts | 280° |
| 2026-05-05 04:34 | 37.82438 | 111.82921 | 35814 ft | 452 kts | 280° |
| 2026-05-05 04:34 | 37.83181 | 111.75030 | 35819 ft | 451 kts | 280° |
| 2026-05-05 04:35 | 37.83956 | 111.67145 | 35815 ft | 450 kts | 281° |
| 2026-05-05 04:35 | 37.84810 | 111.59334 | 35810 ft | 448 kts | 281° |
| 2026-05-05 04:36 | 37.86273 | 111.51809 | 35817 ft | 438 kts | 300° |
| 2026-05-05 04:36 | 37.89920 | 111.45739 | 35813 ft | 434 kts | 321° |
| 2026-05-05 04:37 | 37.94741 | 111.41050 | 35816 ft | 442 kts | 323° |
| 2026-05-05 04:37 | 37.99653 | 111.36328 | 35802 ft | 444 kts | 322° |
| 2026-05-05 04:38 | 38.04541 | 111.31557 | 35789 ft | 443 kts | 322° |
| 2026-05-05 04:38 | 38.09408 | 111.26759 | 35794 ft | 442 kts | 322° |
| 2026-05-05 04:39 | 38.14230 | 111.21985 | 35778 ft | 442 kts | 322° |
| 2026-05-05 04:39 | 38.19073 | 111.17183 | 35769 ft | 441 kts | 322° |
| 2026-05-05 04:40 | 38.23900 | 111.12390 | 35773 ft | 440 kts | 322° |
| 2026-05-05 04:40 | 38.28725 | 111.07589 | 35759 ft | 440 kts | 322° |